sensor_id;sensor_type;location;lat;lon;timestamp;P1;durP1;ratioP1;P2;durP2;ratioP2
59938;SDS011;45801;51.810;19.444;2022-09-09T00:00:14;13.00;;;7.20;;
59938;SDS011;45801;51.810;19.444;2022-09-09T00:03:10;13.30;;;7.40;;
59938;SDS011;45801;51.810;19.444;2022-09-09T00:05:44;11.90;;;7.50;;
59938;SDS011;45801;51.810;19.444;2022-09-09T00:08:28;12.50;;;7.30;;
59938;SDS011;45801;51.810;19.444;2022-09-09T00:11:07;13.50;;;7.40;;
59938;SDS011;45801;51.810;19.444;2022-09-09T00:13:43;12.10;;;7.20;;
59938;SDS011;45801;51.810;19.444;2022-09-09T00:16:16;12.80;;;7.10;;
59938;SDS011;45801;51.810;19.444;2022-09-09T00:18:57;15.20;;;8.10;;
59938;SDS011;45801;51.810;19.444;2022-09-09T00:21:46;12.90;;;7.90;;
59938;SDS011;45801;51.810;19.444;2022-09-09T00:24:24;13.70;;;8.20;;
59938;SDS011;45801;51.810;19.444;2022-09-09T00:26:57;12.80;;;8.00;;
59938;SDS011;45801;51.810;19.444;2022-09-09T00:32:27;11.60;;;7.30;;
59938;SDS011;45801;51.810;19.444;2022-09-09T00:35:00;12.90;;;7.70;;
59938;SDS011;45801;51.810;19.444;2022-09-09T00:37:31;12.40;;;7.80;;
59938;SDS011;45801;51.810;19.444;2022-09-09T00:39:59;12.20;;;7.60;;
59938;SDS011;45801;51.810;19.444;2022-09-09T00:42:35;12.50;;;8.00;;
59938;SDS011;45801;51.810;19.444;2022-09-09T00:47:53;13.10;;;8.30;;
59938;SDS011;45801;51.810;19.444;2022-09-09T00:53:19;13.80;;;8.40;;
59938;SDS011;45801;51.810;19.444;2022-09-09T00:55:59;13.50;;;8.70;;
59938;SDS011;45801;51.810;19.444;2022-09-09T00:58:57;12.40;;;7.40;;
59938;SDS011;45801;51.810;19.444;2022-09-09T01:01:42;13.20;;;7.80;;
59938;SDS011;45801;51.810;19.444;2022-09-09T01:04:10;15.00;;;8.20;;
59938;SDS011;45801;51.810;19.444;2022-09-09T01:06:42;13.20;;;8.30;;
59938;SDS011;45801;51.810;19.444;2022-09-09T01:09:16;13.70;;;7.80;;
59938;SDS011;45801;51.810;19.444;2022-09-09T01:17:14;12.60;;;8.30;;
59938;SDS011;45801;51.810;19.444;2022-09-09T01:20:10;12.70;;;7.60;;
59938;SDS011;45801;51.810;19.444;2022-09-09T01:22:44;14.50;;;8.20;;
59938;SDS011;45801;51.810;19.444;2022-09-09T01:25:56;14.50;;;8.30;;
59938;SDS011;45801;51.810;19.444;2022-09-09T01:28:30;13.10;;;8.90;;
59938;SDS011;45801;51.810;19.444;2022-09-09T01:31:01;15.00;;;8.90;;
59938;SDS011;45801;51.810;19.444;2022-09-09T01:33:30;14.30;;;7.40;;
59938;SDS011;45801;51.810;19.444;2022-09-09T01:38:32;12.90;;;8.90;;
59938;SDS011;45801;51.810;19.444;2022-09-09T01:41:00;14.80;;;8.60;;
59938;SDS011;45801;51.810;19.444;2022-09-09T01:43:27;13.90;;;8.40;;
59938;SDS011;45801;51.810;19.444;2022-09-09T01:45:55;16.00;;;9.20;;
59938;SDS011;45801;51.810;19.444;2022-09-09T01:48:24;14.60;;;8.90;;
59938;SDS011;45801;51.810;19.444;2022-09-09T01:50:51;13.90;;;8.80;;
59938;SDS011;45801;51.810;19.444;2022-09-09T01:53:18;14.90;;;9.10;;
59938;SDS011;45801;51.810;19.444;2022-09-09T01:59:03;14.80;;;9.50;;
59938;SDS011;45801;51.810;19.444;2022-09-09T02:04:44;14.00;;;8.80;;
59938;SDS011;45801;51.810;19.444;2022-09-09T02:12:56;15.40;;;9.20;;
59938;SDS011;45801;51.810;19.444;2022-09-09T02:15:40;12.30;;;8.80;;
59938;SDS011;45801;51.810;19.444;2022-09-09T02:20:41;13.20;;;8.40;;
59938;SDS011;45801;51.810;19.444;2022-09-09T02:23:10;13.50;;;8.80;;
59938;SDS011;45801;51.810;19.444;2022-09-09T02:25:38;14.10;;;9.50;;
59938;SDS011;45801;51.810;19.444;2022-09-09T02:28:07;13.90;;;9.20;;
59938;SDS011;45801;51.810;19.444;2022-09-09T02:30:36;15.50;;;9.00;;
59938;SDS011;45801;51.810;19.444;2022-09-09T02:33:04;16.00;;;8.60;;
59938;SDS011;45801;51.810;19.444;2022-09-09T02:35:33;13.90;;;9.30;;
59938;SDS011;45801;51.810;19.444;2022-09-09T02:38:06;15.50;;;9.50;;
59938;SDS011;45801;51.810;19.444;2022-09-09T02:40:36;13.70;;;9.10;;
59938;SDS011;45801;51.810;19.444;2022-09-09T02:43:02;14.00;;;9.30;;
59938;SDS011;45801;51.810;19.444;2022-09-09T02:46:14;16.20;;;9.80;;
59938;SDS011;45801;51.810;19.444;2022-09-09T02:48:30;18.10;;;10.50;;
59938;SDS011;45801;51.810;19.444;2022-09-09T02:51:19;16.80;;;11.30;;
59938;SDS011;45801;51.810;19.444;2022-09-09T02:54:05;15.70;;;11.40;;
59938;SDS011;45801;51.810;19.444;2022-09-09T02:56:41;20.30;;;15.40;;
59938;SDS011;45801;51.810;19.444;2022-09-09T02:59:12;21.00;;;16.50;;
59938;SDS011;45801;51.810;19.444;2022-09-09T03:01:38;24.00;;;18.80;;
59938;SDS011;45801;51.810;19.444;2022-09-09T03:04:06;21.60;;;17.70;;
59938;SDS011;45801;51.810;19.444;2022-09-09T03:06:32;21.60;;;14.70;;
59938;SDS011;45801;51.810;19.444;2022-09-09T03:08:59;20.10;;;14.10;;
59938;SDS011;45801;51.810;19.444;2022-09-09T03:11:27;20.10;;;14.60;;
59938;SDS011;45801;51.810;19.444;2022-09-09T03:13:54;19.70;;;13.60;;
59938;SDS011;45801;51.810;19.444;2022-09-09T03:16:22;20.30;;;15.20;;
59938;SDS011;45801;51.810;19.444;2022-09-09T03:18:49;20.70;;;13.30;;
59938;SDS011;45801;51.810;19.444;2022-09-09T03:21:16;19.80;;;14.30;;
59938;SDS011;45801;51.810;19.444;2022-09-09T03:23:42;20.40;;;14.30;;
59938;SDS011;45801;51.810;19.444;2022-09-09T03:26:09;18.10;;;12.80;;
59938;SDS011;45801;51.810;19.444;2022-09-09T03:28:36;21.70;;;13.40;;
59938;SDS011;45801;51.810;19.444;2022-09-09T03:31:03;16.90;;;13.00;;
59938;SDS011;45801;51.810;19.444;2022-09-09T03:33:31;17.70;;;12.10;;
59938;SDS011;45801;51.810;19.444;2022-09-09T03:35:57;18.20;;;12.50;;
59938;SDS011;45801;51.810;19.444;2022-09-09T03:38:24;17.70;;;12.30;;
59938;SDS011;45801;51.810;19.444;2022-09-09T03:40:52;16.90;;;13.30;;
59938;SDS011;45801;51.810;19.444;2022-09-09T03:43:28;18.40;;;12.70;;
59938;SDS011;45801;51.810;19.444;2022-09-09T03:45:55;19.50;;;13.10;;
59938;SDS011;45801;51.810;19.444;2022-09-09T03:48:25;18.20;;;13.00;;
59938;SDS011;45801;51.810;19.444;2022-09-09T03:50:54;20.10;;;12.70;;
59938;SDS011;45801;51.810;19.444;2022-09-09T03:53:26;17.90;;;12.90;;
59938;SDS011;45801;51.810;19.444;2022-09-09T03:55:54;20.20;;;13.00;;
59938;SDS011;45801;51.810;19.444;2022-09-09T03:58:22;17.40;;;12.00;;
59938;SDS011;45801;51.810;19.444;2022-09-09T04:00:53;17.30;;;11.90;;
59938;SDS011;45801;51.810;19.444;2022-09-09T04:03:21;17.50;;;12.20;;
59938;SDS011;45801;51.810;19.444;2022-09-09T04:05:51;20.40;;;14.50;;
59938;SDS011;45801;51.810;19.444;2022-09-09T04:08:18;19.60;;;13.50;;
59938;SDS011;45801;51.810;19.444;2022-09-09T04:10:46;19.40;;;13.40;;
59938;SDS011;45801;51.810;19.444;2022-09-09T04:13:14;24.60;;;14.40;;
59938;SDS011;45801;51.810;19.444;2022-09-09T04:15:44;20.80;;;13.40;;
59938;SDS011;45801;51.810;19.444;2022-09-09T04:18:16;20.80;;;14.90;;
59938;SDS011;45801;51.810;19.444;2022-09-09T04:20:42;20.60;;;13.90;;
59938;SDS011;45801;51.810;19.444;2022-09-09T04:23:09;18.70;;;12.90;;
59938;SDS011;45801;51.810;19.444;2022-09-09T04:25:35;20.70;;;13.20;;
59938;SDS011;45801;51.810;19.444;2022-09-09T04:28:02;21.80;;;13.50;;
59938;SDS011;45801;51.810;19.444;2022-09-09T04:30:28;22.00;;;14.90;;
59938;SDS011;45801;51.810;19.444;2022-09-09T04:32:56;22.40;;;13.50;;
59938;SDS011;45801;51.810;19.444;2022-09-09T04:35:22;24.10;;;14.00;;
59938;SDS011;45801;51.810;19.444;2022-09-09T04:37:49;20.80;;;13.30;;
59938;SDS011;45801;51.810;19.444;2022-09-09T04:40:15;21.80;;;14.30;;
59938;SDS011;45801;51.810;19.444;2022-09-09T04:42:42;21.50;;;14.90;;
59938;SDS011;45801;51.810;19.444;2022-09-09T04:45:10;21.60;;;15.00;;
59938;SDS011;45801;51.810;19.444;2022-09-09T04:47:37;22.00;;;14.50;;
59938;SDS011;45801;51.810;19.444;2022-09-09T04:50:04;22.90;;;15.50;;
59938;SDS011;45801;51.810;19.444;2022-09-09T04:52:31;23.50;;;15.50;;
59938;SDS011;45801;51.810;19.444;2022-09-09T04:54:59;23.20;;;16.00;;
59938;SDS011;45801;51.810;19.444;2022-09-09T04:57:26;26.30;;;15.10;;
59938;SDS011;45801;51.810;19.444;2022-09-09T04:59:53;26.80;;;15.10;;
59938;SDS011;45801;51.810;19.444;2022-09-09T05:02:19;24.20;;;14.20;;
59938;SDS011;45801;51.810;19.444;2022-09-09T05:04:46;25.20;;;15.20;;
59938;SDS011;45801;51.810;19.444;2022-09-09T05:07:12;27.10;;;15.80;;
59938;SDS011;45801;51.810;19.444;2022-09-09T05:09:40;25.30;;;15.60;;
59938;SDS011;45801;51.810;19.444;2022-09-09T05:12:07;27.00;;;15.70;;
59938;SDS011;45801;51.810;19.444;2022-09-09T05:14:34;24.50;;;15.80;;
59938;SDS011;45801;51.810;19.444;2022-09-09T05:17:03;30.50;;;16.50;;
59938;SDS011;45801;51.810;19.444;2022-09-09T05:19:30;25.60;;;15.80;;
59938;SDS011;45801;51.810;19.444;2022-09-09T05:21:57;24.30;;;15.20;;
59938;SDS011;45801;51.810;19.444;2022-09-09T05:24:23;26.00;;;14.70;;
59938;SDS011;45801;51.810;19.444;2022-09-09T05:26:49;25.70;;;17.50;;
59938;SDS011;45801;51.810;19.444;2022-09-09T05:29:16;28.40;;;16.30;;
59938;SDS011;45801;51.810;19.444;2022-09-09T05:31:45;27.00;;;16.20;;
59938;SDS011;45801;51.810;19.444;2022-09-09T05:34:13;28.90;;;17.20;;
59938;SDS011;45801;51.810;19.444;2022-09-09T05:36:39;26.70;;;15.60;;
59938;SDS011;45801;51.810;19.444;2022-09-09T05:39:05;28.70;;;16.30;;
59938;SDS011;45801;51.810;19.444;2022-09-09T05:41:32;28.60;;;16.50;;
59938;SDS011;45801;51.810;19.444;2022-09-09T05:43:58;28.00;;;16.90;;
59938;SDS011;45801;51.810;19.444;2022-09-09T05:46:27;28.40;;;18.40;;
59938;SDS011;45801;51.810;19.444;2022-09-09T05:48:53;32.10;;;18.00;;
59938;SDS011;45801;51.810;19.444;2022-09-09T05:51:21;28.00;;;16.40;;
59938;SDS011;45801;51.810;19.444;2022-09-09T05:53:50;27.30;;;17.30;;
59938;SDS011;45801;51.810;19.444;2022-09-09T05:56:18;29.10;;;17.30;;
59938;SDS011;45801;51.810;19.444;2022-09-09T05:58:46;29.00;;;17.10;;
59938;SDS011;45801;51.810;19.444;2022-09-09T06:01:19;28.50;;;16.70;;
59938;SDS011;45801;51.810;19.444;2022-09-09T06:03:46;27.20;;;17.20;;
59938;SDS011;45801;51.810;19.444;2022-09-09T06:06:14;27.40;;;16.50;;
59938;SDS011;45801;51.810;19.444;2022-09-09T06:08:44;27.00;;;17.10;;
59938;SDS011;45801;51.810;19.444;2022-09-09T06:11:12;24.80;;;16.30;;
59938;SDS011;45801;51.810;19.444;2022-09-09T06:13:41;30.10;;;17.90;;
59938;SDS011;45801;51.810;19.444;2022-09-09T06:16:08;25.60;;;16.00;;
59938;SDS011;45801;51.810;19.444;2022-09-09T06:18:37;27.80;;;15.60;;
59938;SDS011;45801;51.810;19.444;2022-09-09T06:21:06;27.70;;;16.80;;
59938;SDS011;45801;51.810;19.444;2022-09-09T06:23:41;23.60;;;16.30;;
59938;SDS011;45801;51.810;19.444;2022-09-09T06:26:15;27.50;;;16.80;;
59938;SDS011;45801;51.810;19.444;2022-09-09T06:28:45;26.20;;;16.90;;
59938;SDS011;45801;51.810;19.444;2022-09-09T06:31:14;26.20;;;16.60;;
59938;SDS011;45801;51.810;19.444;2022-09-09T06:33:50;22.90;;;15.20;;
59938;SDS011;45801;51.810;19.444;2022-09-09T06:36:22;25.40;;;15.80;;
59938;SDS011;45801;51.810;19.444;2022-09-09T06:38:50;24.10;;;16.10;;
59938;SDS011;45801;51.810;19.444;2022-09-09T06:41:17;26.10;;;15.80;;
59938;SDS011;45801;51.810;19.444;2022-09-09T06:43:45;23.40;;;14.70;;
59938;SDS011;45801;51.810;19.444;2022-09-09T06:46:14;22.90;;;14.50;;
59938;SDS011;45801;51.810;19.444;2022-09-09T06:48:42;23.20;;;13.90;;
59938;SDS011;45801;51.810;19.444;2022-09-09T06:51:14;24.30;;;14.80;;
59938;SDS011;45801;51.810;19.444;2022-09-09T06:53:44;23.70;;;14.00;;
59938;SDS011;45801;51.810;19.444;2022-09-09T06:56:19;21.60;;;14.20;;
59938;SDS011;45801;51.810;19.444;2022-09-09T06:58:50;22.60;;;14.20;;
59938;SDS011;45801;51.810;19.444;2022-09-09T07:01:28;25.00;;;15.90;;
59938;SDS011;45801;51.810;19.444;2022-09-09T07:03:56;25.00;;;15.50;;
59938;SDS011;45801;51.810;19.444;2022-09-09T07:06:29;21.50;;;13.70;;
59938;SDS011;45801;51.810;19.444;2022-09-09T07:09:04;23.40;;;14.60;;
59938;SDS011;45801;51.810;19.444;2022-09-09T07:11:34;23.70;;;14.60;;
59938;SDS011;45801;51.810;19.444;2022-09-09T07:14:04;22.00;;;13.50;;
59938;SDS011;45801;51.810;19.444;2022-09-09T07:16:31;22.40;;;13.60;;
59938;SDS011;45801;51.810;19.444;2022-09-09T07:18:59;20.90;;;13.30;;
59938;SDS011;45801;51.810;19.444;2022-09-09T07:21:26;22.10;;;14.60;;
59938;SDS011;45801;51.810;19.444;2022-09-09T07:23:54;19.50;;;13.30;;
59938;SDS011;45801;51.810;19.444;2022-09-09T07:26:22;19.60;;;13.50;;
59938;SDS011;45801;51.810;19.444;2022-09-09T07:28:51;17.10;;;11.80;;
59938;SDS011;45801;51.810;19.444;2022-09-09T07:31:20;18.40;;;13.00;;
59938;SDS011;45801;51.810;19.444;2022-09-09T07:33:49;18.40;;;12.60;;
59938;SDS011;45801;51.810;19.444;2022-09-09T07:36:19;17.60;;;12.50;;
59938;SDS011;45801;51.810;19.444;2022-09-09T07:38:48;20.50;;;13.70;;
59938;SDS011;45801;51.810;19.444;2022-09-09T07:41:19;20.20;;;13.80;;
59938;SDS011;45801;51.810;19.444;2022-09-09T07:43:46;19.60;;;13.00;;
59938;SDS011;45801;51.810;19.444;2022-09-09T07:46:14;20.90;;;12.40;;
59938;SDS011;45801;51.810;19.444;2022-09-09T07:51:32;18.50;;;12.00;;
59938;SDS011;45801;51.810;19.444;2022-09-09T07:54:03;18.20;;;13.20;;
59938;SDS011;45801;51.810;19.444;2022-09-09T07:56:32;17.40;;;12.40;;
59938;SDS011;45801;51.810;19.444;2022-09-09T07:58:59;18.00;;;12.80;;
59938;SDS011;45801;51.810;19.444;2022-09-09T08:01:27;18.50;;;11.80;;
59938;SDS011;45801;51.810;19.444;2022-09-09T08:04:02;17.00;;;12.10;;
59938;SDS011;45801;51.810;19.444;2022-09-09T08:06:32;19.60;;;12.80;;
59938;SDS011;45801;51.810;19.444;2022-09-09T08:09:02;17.00;;;12.40;;
59938;SDS011;45801;51.810;19.444;2022-09-09T08:11:30;17.10;;;11.70;;
59938;SDS011;45801;51.810;19.444;2022-09-09T08:13:56;17.70;;;12.30;;
59938;SDS011;45801;51.810;19.444;2022-09-09T08:16:24;19.80;;;11.80;;
59938;SDS011;45801;51.810;19.444;2022-09-09T08:18:52;18.70;;;14.10;;
59938;SDS011;45801;51.810;19.444;2022-09-09T08:21:21;16.30;;;11.70;;
59938;SDS011;45801;51.810;19.444;2022-09-09T08:23:56;15.80;;;10.60;;
59938;SDS011;45801;51.810;19.444;2022-09-09T08:26:25;16.60;;;12.10;;
59938;SDS011;45801;51.810;19.444;2022-09-09T08:28:54;17.40;;;11.60;;
59938;SDS011;45801;51.810;19.444;2022-09-09T08:33:56;14.90;;;10.30;;
59938;SDS011;45801;51.810;19.444;2022-09-09T08:36:30;14.90;;;9.60;;
59938;SDS011;45801;51.810;19.444;2022-09-09T08:38:59;13.80;;;9.50;;
59938;SDS011;45801;51.810;19.444;2022-09-09T08:52:31;15.90;;;10.80;;
59938;SDS011;45801;51.810;19.444;2022-09-09T08:58:08;16.30;;;11.20;;
59938;SDS011;45801;51.810;19.444;2022-09-09T09:06:29;12.60;;;8.90;;
59938;SDS011;45801;51.810;19.444;2022-09-09T09:09:26;14.00;;;8.20;;
59938;SDS011;45801;51.810;19.444;2022-09-09T09:11:57;11.00;;;6.60;;
59938;SDS011;45801;51.810;19.444;2022-09-09T09:14:30;10.80;;;6.60;;
59938;SDS011;45801;51.810;19.444;2022-09-09T09:17:06;10.10;;;6.50;;
59938;SDS011;45801;51.810;19.444;2022-09-09T09:19:39;10.90;;;6.00;;
59938;SDS011;45801;51.810;19.444;2022-09-09T09:22:17;9.90;;;6.10;;
59938;SDS011;45801;51.810;19.444;2022-09-09T09:24:50;9.10;;;5.70;;
59938;SDS011;45801;51.810;19.444;2022-09-09T09:27:28;11.00;;;6.40;;
59938;SDS011;45801;51.810;19.444;2022-09-09T09:29:58;10.40;;;6.60;;
59938;SDS011;45801;51.810;19.444;2022-09-09T09:32:28;11.20;;;7.40;;
59938;SDS011;45801;51.810;19.444;2022-09-09T09:34:59;12.10;;;7.10;;
59938;SDS011;45801;51.810;19.444;2022-09-09T09:37:33;11.20;;;7.10;;
59938;SDS011;45801;51.810;19.444;2022-09-09T09:42:53;12.20;;;8.60;;
59938;SDS011;45801;51.810;19.444;2022-09-09T09:45:34;13.10;;;8.90;;
59938;SDS011;45801;51.810;19.444;2022-09-09T09:48:11;16.10;;;10.40;;
59938;SDS011;45801;51.810;19.444;2022-09-09T09:53:36;13.10;;;9.00;;
59938;SDS011;45801;51.810;19.444;2022-09-09T09:56:05;13.90;;;8.90;;
59938;SDS011;45801;51.810;19.444;2022-09-09T09:58:48;13.20;;;8.30;;
59938;SDS011;45801;51.810;19.444;2022-09-09T10:03:52;12.60;;;8.10;;
59938;SDS011;45801;51.810;19.444;2022-09-09T10:06:33;12.90;;;7.40;;
59938;SDS011;45801;51.810;19.444;2022-09-09T10:09:03;12.10;;;8.10;;
59938;SDS011;45801;51.810;19.444;2022-09-09T10:11:50;11.10;;;6.60;;
59938;SDS011;45801;51.810;19.444;2022-09-09T10:14:20;10.50;;;6.60;;
59938;SDS011;45801;51.810;19.444;2022-09-09T10:19:59;10.00;;;6.40;;
59938;SDS011;45801;51.810;19.444;2022-09-09T10:22:47;9.80;;;6.10;;
59938;SDS011;45801;51.810;19.444;2022-09-09T10:34:09;10.80;;;7.00;;
59938;SDS011;45801;51.810;19.444;2022-09-09T10:36:46;10.30;;;6.80;;
59938;SDS011;45801;51.810;19.444;2022-09-09T10:42:09;10.70;;;6.60;;
59938;SDS011;45801;51.810;19.444;2022-09-09T10:47:28;10.80;;;6.00;;
59938;SDS011;45801;51.810;19.444;2022-09-09T10:52:36;11.40;;;6.20;;
59938;SDS011;45801;51.810;19.444;2022-09-09T10:57:54;11.20;;;7.10;;
59938;SDS011;45801;51.810;19.444;2022-09-09T11:00:25;11.70;;;6.90;;
59938;SDS011;45801;51.810;19.444;2022-09-09T11:03:01;10.20;;;5.50;;
59938;SDS011;45801;51.810;19.444;2022-09-09T11:05:31;10.70;;;5.60;;
59938;SDS011;45801;51.810;19.444;2022-09-09T11:08:16;8.70;;;5.50;;
59938;SDS011;45801;51.810;19.444;2022-09-09T11:10:59;8.90;;;5.90;;
59938;SDS011;45801;51.810;19.444;2022-09-09T11:13:32;9.40;;;5.20;;
59938;SDS011;45801;51.810;19.444;2022-09-09T11:18:45;10.40;;;5.70;;
59938;SDS011;45801;51.810;19.444;2022-09-09T11:21:16;9.10;;;5.80;;
59938;SDS011;45801;51.810;19.444;2022-09-09T11:24:02;10.10;;;5.40;;
59938;SDS011;45801;51.810;19.444;2022-09-09T11:26:37;10.40;;;5.30;;
59938;SDS011;45801;51.810;19.444;2022-09-09T11:29:16;8.80;;;5.60;;
59938;SDS011;45801;51.810;19.444;2022-09-09T11:34:32;8.80;;;5.10;;
59938;SDS011;45801;51.810;19.444;2022-09-09T11:40:02;8.30;;;4.80;;
59938;SDS011;45801;51.810;19.444;2022-09-09T11:42:43;7.80;;;4.70;;
59938;SDS011;45801;51.810;19.444;2022-09-09T11:45:10;8.20;;;5.00;;
59938;SDS011;45801;51.810;19.444;2022-09-09T11:48:22;9.10;;;4.40;;
59938;SDS011;45801;51.810;19.444;2022-09-09T11:51:01;7.50;;;4.10;;
59938;SDS011;45801;51.810;19.444;2022-09-09T11:53:31;8.40;;;4.90;;
59938;SDS011;45801;51.810;19.444;2022-09-09T11:56:05;7.80;;;4.10;;
59938;SDS011;45801;51.810;19.444;2022-09-09T11:58:37;7.60;;;4.20;;
59938;SDS011;45801;51.810;19.444;2022-09-09T12:01:13;8.20;;;3.10;;
59938;SDS011;45801;51.810;19.444;2022-09-09T12:03:45;6.30;;;3.00;;
59938;SDS011;45801;51.810;19.444;2022-09-09T12:06:19;6.70;;;3.60;;
59938;SDS011;45801;51.810;19.444;2022-09-09T12:09:08;6.60;;;3.20;;
59938;SDS011;45801;51.810;19.444;2022-09-09T12:11:43;6.60;;;3.40;;
59938;SDS011;45801;51.810;19.444;2022-09-09T12:14:19;7.10;;;3.30;;
59938;SDS011;45801;51.810;19.444;2022-09-09T12:16:47;7.30;;;3.50;;
59938;SDS011;45801;51.810;19.444;2022-09-09T12:19:14;8.00;;;3.50;;
59938;SDS011;45801;51.810;19.444;2022-09-09T12:21:54;6.60;;;3.40;;
59938;SDS011;45801;51.810;19.444;2022-09-09T12:24:32;6.70;;;3.40;;
59938;SDS011;45801;51.810;19.444;2022-09-09T12:30:09;7.30;;;3.40;;
59938;SDS011;45801;51.810;19.444;2022-09-09T12:32:38;7.40;;;3.90;;
59938;SDS011;45801;51.810;19.444;2022-09-09T12:35:38;8.50;;;3.70;;
59938;SDS011;45801;51.810;19.444;2022-09-09T12:37:58;6.80;;;3.40;;
59938;SDS011;45801;51.810;19.444;2022-09-09T12:40:30;6.80;;;4.00;;
59938;SDS011;45801;51.810;19.444;2022-09-09T12:43:01;7.00;;;3.70;;
59938;SDS011;45801;51.810;19.444;2022-09-09T12:45:41;7.30;;;4.60;;
59938;SDS011;45801;51.810;19.444;2022-09-09T12:48:08;7.70;;;5.00;;
59938;SDS011;45801;51.810;19.444;2022-09-09T12:50:45;8.70;;;5.20;;
59938;SDS011;45801;51.810;19.444;2022-09-09T12:53:24;8.30;;;5.20;;
59938;SDS011;45801;51.810;19.444;2022-09-09T12:55:55;8.70;;;5.20;;
59938;SDS011;45801;51.810;19.444;2022-09-09T12:58:23;9.80;;;5.00;;
59938;SDS011;45801;51.810;19.444;2022-09-09T13:00:51;9.00;;;5.00;;
59938;SDS011;45801;51.810;19.444;2022-09-09T13:03:22;8.30;;;5.30;;
59938;SDS011;45801;51.810;19.444;2022-09-09T13:05:49;8.10;;;4.70;;
59938;SDS011;45801;51.810;19.444;2022-09-09T13:08:16;8.00;;;4.90;;
59938;SDS011;45801;51.810;19.444;2022-09-09T13:10:52;7.60;;;4.30;;
59938;SDS011;45801;51.810;19.444;2022-09-09T13:13:28;9.00;;;4.50;;
59938;SDS011;45801;51.810;19.444;2022-09-09T13:16:01;7.80;;;3.90;;
59938;SDS011;45801;51.810;19.444;2022-09-09T13:18:31;7.60;;;4.00;;
59938;SDS011;45801;51.810;19.444;2022-09-09T13:21:00;7.30;;;3.80;;
59938;SDS011;45801;51.810;19.444;2022-09-09T13:23:29;8.20;;;4.00;;
59938;SDS011;45801;51.810;19.444;2022-09-09T13:26:30;7.10;;;4.20;;
59938;SDS011;45801;51.810;19.444;2022-09-09T13:28:54;8.00;;;3.80;;
59938;SDS011;45801;51.810;19.444;2022-09-09T13:31:32;7.90;;;4.40;;
59938;SDS011;45801;51.810;19.444;2022-09-09T13:37:00;7.70;;;3.60;;
59938;SDS011;45801;51.810;19.444;2022-09-09T13:39:28;8.60;;;3.70;;
59938;SDS011;45801;51.810;19.444;2022-09-09T13:41:55;7.40;;;3.70;;
59938;SDS011;45801;51.810;19.444;2022-09-09T13:44:24;7.90;;;4.20;;
59938;SDS011;45801;51.810;19.444;2022-09-09T13:46:59;7.90;;;4.00;;
59938;SDS011;45801;51.810;19.444;2022-09-09T13:49:28;7.40;;;3.40;;
59938;SDS011;45801;51.810;19.444;2022-09-09T13:52:03;7.60;;;4.10;;
59938;SDS011;45801;51.810;19.444;2022-09-09T13:54:34;6.80;;;3.80;;
59938;SDS011;45801;51.810;19.444;2022-09-09T13:57:01;6.90;;;3.70;;
59938;SDS011;45801;51.810;19.444;2022-09-09T13:59:28;7.70;;;3.70;;
59938;SDS011;45801;51.810;19.444;2022-09-09T14:01:54;9.40;;;4.30;;
59938;SDS011;45801;51.810;19.444;2022-09-09T14:04:21;7.50;;;3.40;;
59938;SDS011;45801;51.810;19.444;2022-09-09T14:06:47;6.80;;;3.50;;
59938;SDS011;45801;51.810;19.444;2022-09-09T14:09:16;8.20;;;3.70;;
59938;SDS011;45801;51.810;19.444;2022-09-09T14:11:44;7.20;;;3.60;;
59938;SDS011;45801;51.810;19.444;2022-09-09T14:14:12;8.40;;;4.00;;
59938;SDS011;45801;51.810;19.444;2022-09-09T14:16:38;7.40;;;3.50;;
59938;SDS011;45801;51.810;19.444;2022-09-09T14:19:04;8.00;;;3.60;;
59938;SDS011;45801;51.810;19.444;2022-09-09T14:21:31;6.60;;;3.80;;
59938;SDS011;45801;51.810;19.444;2022-09-09T14:23:58;7.30;;;3.70;;
59938;SDS011;45801;51.810;19.444;2022-09-09T14:26:25;6.60;;;3.70;;
59938;SDS011;45801;51.810;19.444;2022-09-09T14:28:52;7.60;;;3.20;;
59938;SDS011;45801;51.810;19.444;2022-09-09T14:31:18;6.10;;;3.10;;
59938;SDS011;45801;51.810;19.444;2022-09-09T14:33:45;8.50;;;3.30;;
59938;SDS011;45801;51.810;19.444;2022-09-09T14:36:12;6.10;;;2.70;;
59938;SDS011;45801;51.810;19.444;2022-09-09T14:38:38;5.30;;;2.80;;
59938;SDS011;45801;51.810;19.444;2022-09-09T14:41:05;7.40;;;3.60;;
59938;SDS011;45801;51.810;19.444;2022-09-09T14:43:32;7.20;;;3.00;;
59938;SDS011;45801;51.810;19.444;2022-09-09T14:46:17;6.30;;;3.20;;
59938;SDS011;45801;51.810;19.444;2022-09-09T14:48:48;7.50;;;4.10;;
59938;SDS011;45801;51.810;19.444;2022-09-09T14:51:18;8.00;;;4.70;;
59938;SDS011;45801;51.810;19.444;2022-09-09T14:53:51;7.50;;;4.20;;
59938;SDS011;45801;51.810;19.444;2022-09-09T14:56:20;7.20;;;3.80;;
59938;SDS011;45801;51.810;19.444;2022-09-09T14:58:49;7.80;;;4.00;;
59938;SDS011;45801;51.810;19.444;2022-09-09T15:01:18;7.20;;;4.00;;
59938;SDS011;45801;51.810;19.444;2022-09-09T15:03:52;6.90;;;3.30;;
59938;SDS011;45801;51.810;19.444;2022-09-09T15:06:21;6.90;;;4.10;;
59938;SDS011;45801;51.810;19.444;2022-09-09T15:08:51;8.20;;;3.90;;
59938;SDS011;45801;51.810;19.444;2022-09-09T15:11:19;7.20;;;4.20;;
59938;SDS011;45801;51.810;19.444;2022-09-09T15:13:47;7.70;;;4.10;;
59938;SDS011;45801;51.810;19.444;2022-09-09T15:16:14;7.90;;;4.30;;
59938;SDS011;45801;51.810;19.444;2022-09-09T15:18:43;7.20;;;3.90;;
59938;SDS011;45801;51.810;19.444;2022-09-09T15:21:15;9.80;;;4.60;;
59938;SDS011;45801;51.810;19.444;2022-09-09T15:23:44;7.90;;;4.10;;
59938;SDS011;45801;51.810;19.444;2022-09-09T15:26:11;9.00;;;4.80;;
59938;SDS011;45801;51.810;19.444;2022-09-09T15:28:41;8.50;;;4.30;;
59938;SDS011;45801;51.810;19.444;2022-09-09T15:33:36;10.30;;;4.40;;
59938;SDS011;45801;51.810;19.444;2022-09-09T15:36:13;7.50;;;4.00;;
59938;SDS011;45801;51.810;19.444;2022-09-09T15:38:45;6.60;;;3.80;;
59938;SDS011;45801;51.810;19.444;2022-09-09T15:41:12;9.40;;;3.90;;
59938;SDS011;45801;51.810;19.444;2022-09-09T15:43:42;8.70;;;4.20;;
59938;SDS011;45801;51.810;19.444;2022-09-09T15:48:54;6.80;;;3.90;;
59938;SDS011;45801;51.810;19.444;2022-09-09T15:51:22;7.70;;;3.90;;
59938;SDS011;45801;51.810;19.444;2022-09-09T15:53:53;8.00;;;3.90;;
59938;SDS011;45801;51.810;19.444;2022-09-09T15:56:22;9.40;;;4.20;;
59938;SDS011;45801;51.810;19.444;2022-09-09T15:58:50;9.10;;;4.10;;
59938;SDS011;45801;51.810;19.444;2022-09-09T16:01:18;8.70;;;4.50;;
59938;SDS011;45801;51.810;19.444;2022-09-09T16:03:45;8.70;;;4.40;;
59938;SDS011;45801;51.810;19.444;2022-09-09T16:06:16;8.30;;;4.20;;
59938;SDS011;45801;51.810;19.444;2022-09-09T16:08:44;9.10;;;6.00;;
59938;SDS011;45801;51.810;19.444;2022-09-09T16:11:16;8.20;;;3.90;;
59938;SDS011;45801;51.810;19.444;2022-09-09T16:13:48;7.80;;;3.60;;
59938;SDS011;45801;51.810;19.444;2022-09-09T16:16:17;8.50;;;4.20;;
59938;SDS011;45801;51.810;19.444;2022-09-09T16:18:49;9.70;;;4.60;;
59938;SDS011;45801;51.810;19.444;2022-09-09T16:21:41;8.70;;;4.20;;
59938;SDS011;45801;51.810;19.444;2022-09-09T16:24:11;8.30;;;4.10;;
59938;SDS011;45801;51.810;19.444;2022-09-09T16:26:44;8.30;;;4.40;;
59938;SDS011;45801;51.810;19.444;2022-09-09T16:29:14;8.40;;;4.30;;
59938;SDS011;45801;51.810;19.444;2022-09-09T16:31:41;10.30;;;5.00;;